Time;durP1;ratioP1;P1;durP2;ratioP2;P2;SDS_P1;SDS_P2;PMS_P1;PMS_P2;Temp;Humidity;BMP_temperature;BMP_pressure;BME280_temperature;BME280_humidity;BME280_pressure;Samples;Min_cycle;Max_cycle;Signal;HPM_P1;HPM_P2
2021/09/19 00:00:03;;;;;;;;;;;23.30;46.20;;;;;;485049;245;1008;-69
2021/09/19 00:02:05;;;;;;;;;;;23.30;45.80;;;;;;484956;245;1199;-68
2021/09/19 00:04:06;;;;;;;;;;;23.20;46.40;;;;;;485018;245;956;-68
2021/09/19 00:06:07;;;;;;;;;;;23.30;46.00;;;;;;485010;245;1220;-68
2021/09/19 00:08:09;;;;;;;;;;;23.30;46.10;;;;;;484960;245;1015;-69
2021/09/19 00:10:10;;;;;;;;;;;23.30;45.80;;;;;;485052;245;975;-69
2021/09/19 00:12:11;;;;;;;;;;;23.40;45.40;;;;;;485032;245;972;-69
2021/09/19 00:14:13;;;;;;;;;;;23.50;45.60;;;;;;485051;245;988;-69
2021/09/19 00:16:14;;;;;;;;;;;23.20;45.80;;;;;;485061;245;923;-69
2021/09/19 00:18:17;;;;;;;;;;;23.40;45.50;;;;;;485081;245;2179;-68
2021/09/19 00:20:17;;;;;;;;;;;23.10;45.80;;;;;;484928;245;1548;-69
2021/09/19 00:22:18;;;;;;;;;;;23.30;45.40;;;;;;485024;245;962;-69
2021/09/19 00:24:19;;;;;;;;;;;23.40;45.70;;;;;;485022;245;935;-69
2021/09/19 00:26:20;;;;;;;;;;;23.30;45.80;;;;;;485013;245;1115;-68
2021/09/19 00:28:22;;;;;;;;;;;23.10;45.80;;;;;;485036;245;1148;-69
2021/09/19 00:30:23;;;;;;;;;;;23.00;46.00;;;;;;485017;245;954;-68
2021/09/19 00:32:25;;;;;;;;;;;23.30;45.40;;;;;;485011;245;1112;-68
2021/09/19 00:34:26;;;;;;;;;;;23.10;45.70;;;;;;485103;245;1116;-69
2021/09/19 00:36:27;;;;;;;;;;;23.20;45.50;;;;;;484963;245;1294;-68
2021/09/19 00:38:28;;;;;;;;;;;23.20;45.70;;;;;;485069;245;2195;-68
2021/09/19 00:40:30;;;;;;;;;;;23.20;45.50;;;;;;485081;245;982;-69
2021/09/19 00:42:31;;;;;;;;;;;23.30;45.10;;;;;;485039;245;1137;-69
2021/09/19 00:44:32;;;;;;;;;;;23.30;45.30;;;;;;484989;245;948;-68
2021/09/19 00:46:34;;;;;;;;;;;23.00;45.50;;;;;;484917;245;1205;-68
2021/09/19 00:48:35;;;;;;;;;;;23.30;45.20;;;;;;485045;246;1125;-69
2021/09/19 00:50:36;;;;;;;;;;;23.30;45.40;;;;;;484982;245;1213;-68
2021/09/19 00:52:38;;;;;;;;;;;23.30;45.10;;;;;;484932;245;1250;-69
2021/09/19 00:54:39;;;;;;;;;;;23.50;45.00;;;;;;484993;246;1077;-69
2021/09/19 00:56:41;;;;;;;;;;;23.30;45.10;;;;;;484953;245;1213;-69
2021/09/19 00:58:42;;;;;;;;;;;23.50;44.80;;;;;;485045;245;2124;-69
2021/09/19 01:00:48;;;;;;;;;;;23.40;44.90;;;;;;485027;245;1193;-69
2021/09/19 01:02:45;;;;;;;;;;;23.40;44.70;;;;;;484822;245;1321;-68
2021/09/19 01:04:46;;;;;;;;;;;23.20;45.20;;;;;;485044;246;978;-68
2021/09/19 01:06:47;;;;;;;;;;;23.10;45.10;;;;;;484879;245;1278;-68
2021/09/19 01:08:49;;;;;;;;;;;24.00;44.30;;;;;;484993;245;1046;-69
2021/09/19 01:10:50;;;;;;;;;;;23.40;44.40;;;;;;484976;245;1203;-69
2021/09/19 01:12:51;;;;;;;;;;;23.70;44.30;;;;;;485033;245;1397;-68
2021/09/19 01:14:53;;;;;;;;;;;23.30;44.70;;;;;;485029;245;988;-68
2021/09/19 01:16:54;;;;;;;;;;;23.40;44.70;;;;;;484993;245;1180;-68
2021/09/19 01:18:55;;;;;;;;;;;23.70;44.30;;;;;;485042;245;2117;-69
2021/09/19 01:20:57;;;;;;;;;;;23.50;44.60;;;;;;484865;245;1142;-68
2021/09/19 01:22:58;;;;;;;;;;;23.50;44.40;;;;;;485109;245;1249;-68
2021/09/19 01:24:59;;;;;;;;;;;23.60;44.40;;;;;;485045;245;970;-69
2021/09/19 01:27:00;;;;;;;;;;;23.70;44.10;;;;;;484933;245;1225;-68
2021/09/19 01:29:02;;;;;;;;;;;23.80;43.90;;;;;;484981;246;1231;-69
2021/09/19 01:31:03;;;;;;;;;;;23.80;43.80;;;;;;484991;245;1211;-69
2021/09/19 01:33:05;;;;;;;;;;;23.80;43.80;;;;;;485055;245;1001;-69
2021/09/19 01:35:07;;;;;;;;;;;23.90;43.60;;;;;;485031;245;934;-68
2021/09/19 01:37:09;;;;;;;;;;;23.90;43.60;;;;;;484920;245;1300;-69
2021/09/19 01:39:10;;;;;;;;;;;23.70;44.00;;;;;;485017;245;2109;-69
2021/09/19 01:41:11;;;;;;;;;;;23.80;44.00;;;;;;484965;245;962;-68
2021/09/19 01:43:13;;;;;;;;;;;23.70;44.00;;;;;;485045;245;1072;-68
2021/09/19 01:45:14;;;;;;;;;;;23.80;43.90;;;;;;485001;245;1043;-68
2021/09/19 01:47:15;;;;;;;;;;;23.80;43.70;;;;;;484937;245;1197;-68
2021/09/19 01:49:17;;;;;;;;;;;23.90;43.50;;;;;;485079;245;1106;-68
2021/09/19 01:51:18;;;;;;;;;;;23.90;43.50;;;;;;485023;245;1151;-68
2021/09/19 01:53:19;;;;;;;;;;;23.90;43.80;;;;;;485099;245;1241;-68
2021/09/19 01:55:21;;;;;;;;;;;24.00;43.30;;;;;;485032;245;1038;-68
2021/09/19 01:57:22;;;;;;;;;;;23.80;43.90;;;;;;484889;245;1208;-69
2021/09/19 01:59:23;;;;;;;;;;;23.80;43.90;;;;;;485051;245;2188;-69
2021/09/19 02:01:25;;;;;;;;;;;23.90;43.80;;;;;;484881;245;1207;-68
2021/09/19 02:03:26;;;;;;;;;;;24.00;43.60;;;;;;484954;245;1039;-68
2021/09/19 02:05:27;;;;;;;;;;;23.90;43.30;;;;;;485090;245;957;-69
2021/09/19 02:07:29;;;;;;;;;;;24.20;43.20;;;;;;484984;245;1201;-69
2021/09/19 02:09:30;;;;;;;;;;;23.90;43.60;;;;;;485034;245;959;-68
2021/09/19 02:11:31;;;;;;;;;;;23.80;43.60;;;;;;485008;245;1042;-69
2021/09/19 02:13:33;;;;;;;;;;;23.90;43.70;;;;;;485030;245;996;-68
2021/09/19 02:15:34;;;;;;;;;;;23.80;43.80;;;;;;485051;245;1014;-68
2021/09/19 02:17:35;;;;;;;;;;;23.90;43.70;;;;;;485041;245;1027;-68
2021/09/19 02:19:37;;;;;;;;;;;23.70;43.90;;;;;;485050;245;2121;-68
2021/09/19 02:21:38;;;;;;;;;;;23.90;43.60;;;;;;484957;245;1107;-69
2021/09/19 02:23:39;;;;;;;;;;;23.90;43.70;;;;;;484991;246;1223;-68
2021/09/19 02:25:41;;;;;;;;;;;23.90;43.50;;;;;;485087;245;1144;-68
2021/09/19 02:27:42;;;;;;;;;;;23.80;43.70;;;;;;485066;245;1142;-68
2021/09/19 02:29:43;;;;;;;;;;;23.80;43.60;;;;;;485048;245;1144;-69
2021/09/19 02:31:45;;;;;;;;;;;23.90;43.60;;;;;;485073;245;996;-69
2021/09/19 02:33:46;;;;;;;;;;;24.00;43.60;;;;;;485026;245;1019;-68
2021/09/19 02:35:47;;;;;;;;;;;24.10;43.50;;;;;;484943;245;927;-69
2021/09/19 02:37:49;;;;;;;;;;;24.10;43.20;;;;;;484956;245;1111;-68
2021/09/19 02:39:50;;;;;;;;;;;24.40;42.90;;;;;;484992;245;2128;-69
2021/09/19 02:41:51;;;;;;;;;;;24.10;43.10;;;;;;484985;245;1338;-68
2021/09/19 02:43:53;;;;;;;;;;;24.10;43.20;;;;;;485031;245;1003;-68
2021/09/19 02:45:54;;;;;;;;;;;24.30;42.90;;;;;;484917;245;1167;-68
2021/09/19 02:47:55;;;;;;;;;;;24.10;43.10;;;;;;484945;245;1135;-69
2021/09/19 02:49:57;;;;;;;;;;;24.20;43.10;;;;;;485046;245;1126;-68
2021/09/19 02:51:58;;;;;;;;;;;24.10;43.10;;;;;;484986;245;1394;-68
2021/09/19 02:53:59;;;;;;;;;;;24.30;43.00;;;;;;485041;245;1204;-68
2021/09/19 02:56:00;;;;;;;;;;;24.20;42.90;;;;;;484980;245;1216;-69
2021/09/19 02:58:02;;;;;;;;;;;23.80;43.80;;;;;;485041;245;1333;-68
2021/09/19 03:00:03;;;;;;;;;;;23.80;43.60;;;;;;485042;245;2144;-69
2021/09/19 03:02:06;;;;;;;;;;;23.90;43.70;;;;;;484928;245;1329;-69
2021/09/19 03:04:06;;;;;;;;;;;23.90;43.50;;;;;;484996;245;1457;-68
2021/09/19 03:06:08;;;;;;;;;;;23.80;43.70;;;;;;484954;245;1102;-68
2021/09/19 03:08:09;;;;;;;;;;;23.80;43.60;;;;;;484963;245;1176;-69
2021/09/19 03:10:10;;;;;;;;;;;24.00;42.80;;;;;;484972;245;1005;-69
2021/09/19 03:12:11;;;;;;;;;;;24.00;43.50;;;;;;484954;245;1205;-68
2021/09/19 03:14:13;;;;;;;;;;;23.70;44.00;;;;;;484951;245;1097;-68
2021/09/19 03:16:14;;;;;;;;;;;23.80;43.70;;;;;;484959;245;1250;-68
2021/09/19 03:18:15;;;;;;;;;;;24.00;43.40;;;;;;485036;245;1130;-68
2021/09/19 03:20:17;;;;;;;;;;;23.70;43.90;;;;;;485047;245;2128;-69
2021/09/19 03:22:18;;;;;;;;;;;23.80;43.70;;;;;;484964;245;1082;-68
2021/09/19 03:24:19;;;;;;;;;;;23.80;43.70;;;;;;485028;245;1534;-68
2021/09/19 03:26:21;;;;;;;;;;;23.80;43.80;;;;;;484964;245;1347;-68
2021/09/19 03:28:22;;;;;;;;;;;23.90;43.40;;;;;;485009;245;1049;-68
2021/09/19 03:30:23;;;;;;;;;;;24.00;43.40;;;;;;485060;245;1050;-68
2021/09/19 03:32:25;;;;;;;;;;;23.80;43.70;;;;;;484977;245;1129;-69
2021/09/19 03:34:26;;;;;;;;;;;23.70;43.60;;;;;;485014;245;970;-69
2021/09/19 03:36:27;;;;;;;;;;;23.90;43.60;;;;;;484919;245;1350;-69
2021/09/19 03:38:29;;;;;;;;;;;24.00;43.40;;;;;;484990;245;1121;-69
2021/09/19 03:40:30;;;;;;;;;;;23.70;43.70;;;;;;484937;246;2184;-68
2021/09/19 03:42:31;;;;;;;;;;;24.00;43.20;;;;;;484912;245;1192;-68
2021/09/19 03:44:32;;;;;;;;;;;23.70;43.70;;;;;;484964;246;968;-68
2021/09/19 03:46:34;;;;;;;;;;;23.70;43.90;;;;;;484914;245;1293;-68
2021/09/19 03:48:35;;;;;;;;;;;24.00;43.30;;;;;;484999;246;1362;-69
2021/09/19 03:50:36;;;;;;;;;;;23.90;43.50;;;;;;485068;245;1282;-68
2021/09/19 03:52:38;;;;;;;;;;;23.90;43.20;;;;;;484989;245;1091;-68
2021/09/19 03:54:39;;;;;;;;;;;23.90;43.20;;;;;;485198;245;1119;-68
2021/09/19 03:56:40;;;;;;;;;;;23.90;43.50;;;;;;484940;245;1217;-68
2021/09/19 03:58:42;;;;;;;;;;;23.80;43.70;;;;;;485081;245;1131;-68
2021/09/19 04:00:43;;;;;;;;;;;23.90;43.40;;;;;;484965;245;2200;-69
2021/09/19 04:02:44;;;;;;;;;;;23.70;43.50;;;;;;484939;246;1125;-69
2021/09/19 04:04:46;;;;;;;;;;;24.20;43.00;;;;;;485095;245;1120;-68
2021/09/19 04:06:47;;;;;;;;;;;23.90;43.30;;;;;;485019;245;1161;-68
2021/09/19 04:08:48;;;;;;;;;;;23.80;43.50;;;;;;485011;245;1182;-68
2021/09/19 04:10:50;;;;;;;;;;;23.80;43.40;;;;;;484971;245;1104;-68
2021/09/19 04:12:51;;;;;;;;;;;24.00;43.10;;;;;;485101;245;1112;-69
2021/09/19 04:14:52;;;;;;;;;;;23.90;43.30;;;;;;485070;245;1042;-68
2021/09/19 04:16:54;;;;;;;;;;;23.70;43.50;;;;;;484989;245;1239;-68
2021/09/19 04:18:55;;;;;;;;;;;24.00;43.40;;;;;;485085;245;1101;-69
2021/09/19 04:20:56;;;;;;;;;;;24.00;43.00;;;;;;484988;245;2132;-69
2021/09/19 04:22:58;;;;;;;;;;;23.90;43.20;;;;;;485048;245;1136;-69
2021/09/19 04:25:00;;;;;;;;;;;24.00;43.10;;;;;;485054;245;1234;-68
2021/09/19 04:27:01;;;;;;;;;;;23.90;43.00;;;;;;485024;245;1222;-69
2021/09/19 04:29:02;;;;;;;;;;;23.80;43.30;;;;;;485051;246;1188;-69
2021/09/19 04:31:04;;;;;;;;;;;24.10;42.80;;;;;;484946;245;1378;-68
2021/09/19 04:33:05;;;;;;;;;;;23.80;43.10;;;;;;484968;245;1084;-68
2021/09/19 04:35:06;;;;;;;;;;;23.80;43.50;;;;;;485012;245;961;-69
2021/09/19 04:37:11;;;;;;;;;;;24.10;43.00;;;;;;484902;245;1112;-68
2021/09/19 04:39:09;;;;;;;;;;;23.90;43.00;;;;;;484762;245;1315;-69
2021/09/19 04:41:10;;;;;;;;;;;24.00;42.80;;;;;;484902;245;2127;-68
2021/09/19 04:43:12;;;;;;;;;;;24.10;42.80;;;;;;484970;245;1128;-69
2021/09/19 04:45:13;;;;;;;;;;;23.90;43.10;;;;;;484950;245;1374;-68
2021/09/19 04:47:15;;;;;;;;;;;23.90;42.90;;;;;;484884;245;1180;-69
2021/09/19 04:49:16;;;;;;;;;;;23.80;43.20;;;;;;485030;245;972;-69
2021/09/19 04:51:17;;;;;;;;;;;24.00;42.90;;;;;;484930;245;1213;-69
2021/09/19 04:53:18;;;;;;;;;;;23.90;42.90;;;;;;484979;245;1235;-68
2021/09/19 04:55:20;;;;;;;;;;;24.00;43.00;;;;;;485073;245;1230;-69
2021/09/19 04:57:21;;;;;;;;;;;24.00;42.70;;;;;;485040;245;1181;-68
2021/09/19 04:59:22;;;;;;;;;;;23.90;42.80;;;;;;485062;245;2124;-69
2021/09/19 05:01:24;;;;;;;;;;;24.10;42.50;;;;;;484967;245;1143;-68
2021/09/19 05:03:25;;;;;;;;;;;24.00;42.80;;;;;;485012;245;983;-68
2021/09/19 05:05:26;;;;;;;;;;;24.00;42.70;;;;;;485041;245;990;-68
2021/09/19 05:07:28;;;;;;;;;;;24.10;42.50;;;;;;485076;245;1210;-69
2021/09/19 05:09:29;;;;;;;;;;;24.80;41.50;;;;;;484980;245;1178;-69
2021/09/19 05:11:30;;;;;;;;;;;24.10;42.70;;;;;;485004;245;1198;-68
2021/09/19 05:13:32;;;;;;;;;;;24.00;42.90;;;;;;485032;245;953;-69
2021/09/19 05:15:33;;;;;;;;;;;24.00;42.70;;;;;;485016;245;970;-68
2021/09/19 05:17:34;;;;;;;;;;;24.00;43.00;;;;;;484962;245;1227;-69
2021/09/19 05:19:36;;;;;;;;;;;23.90;43.00;;;;;;485114;245;2179;-69
2021/09/19 05:21:37;;;;;;;;;;;24.10;42.70;;;;;;485045;245;1486;-69
2021/09/19 05:23:38;;;;;;;;;;;23.70;43.00;;;;;;485021;245;1009;-68
2021/09/19 05:25:40;;;;;;;;;;;23.90;43.20;;;;;;485029;246;1185;-68
2021/09/19 05:27:41;;;;;;;;;;;23.80;43.20;;;;;;484975;245;1422;-69
2021/09/19 05:29:42;;;;;;;;;;;23.80;43.30;;;;;;485098;246;1094;-69
2021/09/19 05:31:43;;;;;;;;;;;23.80;43.00;;;;;;484999;245;1190;-69
2021/09/19 05:33:46;;;;;;;;;;;24.10;42.60;;;;;;485114;245;1063;-69
2021/09/19 05:35:47;;;;;;;;;;;23.80;43.10;;;;;;485013;245;1506;-68
2021/09/19 05:37:48;;;;;;;;;;;23.90;43.20;;;;;;484979;245;1193;-69
2021/09/19 05:39:49;;;;;;;;;;;23.80;42.90;;;;;;485046;245;2112;-68
2021/09/19 05:41:52;;;;;;;;;;;24.00;42.70;;;;;;484968;245;1125;-68
2021/09/19 05:43:53;;;;;;;;;;;24.20;42.50;;;;;;485024;245;968;-69
2021/09/19 05:45:55;;;;;;;;;;;24.30;42.20;;;;;;485046;245;1163;-68
2021/09/19 05:47:56;;;;;;;;;;;24.50;41.80;;;;;;485007;245;1108;-68
2021/09/19 05:49:57;;;;;;;;;;;24.70;41.40;;;;;;485023;245;986;-69
2021/09/19 05:51:59;;;;;;;;;;;24.70;41.30;;;;;;484981;245;1158;-69
2021/09/19 05:54:00;;;;;;;;;;;24.60;41.60;;;;;;485051;245;1097;-68
2021/09/19 05:56:01;;;;;;;;;;;24.50;41.80;;;;;;484951;246;1192;-68
2021/09/19 05:58:03;;;;;;;;;;;24.20;42.20;;;;;;484959;245;1367;-69
2021/09/19 06:00:04;;;;;;;;;;;24.20;42.30;;;;;;485024;245;2133;-69
2021/09/19 06:02:05;;;;;;;;;;;24.20;42.40;;;;;;485029;245;1162;-68
2021/09/19 06:04:07;;;;;;;;;;;24.10;42.30;;;;;;485112;245;1018;-68
2021/09/19 06:06:08;;;;;;;;;;;24.30;41.80;;;;;;484950;245;1156;-69
2021/09/19 06:08:09;;;;;;;;;;;23.90;43.00;;;;;;485063;245;1096;-68
2021/09/19 06:10:10;;;;;;;;;;;23.80;43.20;;;;;;485029;246;1553;-68
2021/09/19 06:12:12;;;;;;;;;;;24.00;42.60;;;;;;484980;245;1215;-68
2021/09/19 06:14:13;;;;;;;;;;;24.00;42.70;;;;;;485085;245;1109;-68
2021/09/19 06:16:14;;;;;;;;;;;23.80;43.00;;;;;;484906;245;1294;-69
2021/09/19 06:18:16;;;;;;;;;;;24.00;42.70;;;;;;485001;245;1092;-68
2021/09/19 06:20:17;;;;;;;;;;;23.90;43.10;;;;;;485024;245;2191;-68
2021/09/19 06:22:18;;;;;;;;;;;23.70;43.20;;;;;;484970;245;1206;-69
2021/09/19 06:24:20;;;;;;;;;;;23.80;43.00;;;;;;485044;245;1024;-68
2021/09/19 06:26:21;;;;;;;;;;;23.80;43.10;;;;;;484931;245;1261;-69
2021/09/19 06:28:22;;;;;;;;;;;23.90;43.00;;;;;;484974;245;1192;-69
2021/09/19 06:30:25;;;;;;;;;;;23.70;43.20;;;;;;484987;245;945;-69
2021/09/19 06:32:25;;;;;;;;;;;23.50;43.50;;;;;;484862;245;1266;-68
2021/09/19 06:34:26;;;;;;;;;;;23.70;43.60;;;;;;485014;245;930;-68
2021/09/19 06:36:28;;;;;;;;;;;23.80;43.30;;;;;;484950;245;1124;-69
2021/09/19 06:38:29;;;;;;;;;;;23.90;43.00;;;;;;485054;245;1178;-69
2021/09/19 06:40:30;;;;;;;;;;;23.80;43.30;;;;;;485036;245;2117;-68
2021/09/19 06:42:32;;;;;;;;;;;23.70;43.50;;;;;;485043;245;1175;-68
2021/09/19 06:44:33;;;;;;;;;;;23.70;43.30;;;;;;485107;245;1074;-69
2021/09/19 06:46:34;;;;;;;;;;;23.60;43.80;;;;;;485022;245;1143;-69
2021/09/19 06:48:35;;;;;;;;;;;23.80;43.70;;;;;;485069;245;1001;-69
2021/09/19 06:50:37;;;;;;;;;;;23.70;43.30;;;;;;484996;245;1117;-68
2021/09/19 06:52:38;;;;;;;;;;;24.00;43.30;;;;;;484918;245;1282;-68
2021/09/19 06:54:42;;;;;;;;;;;23.70;43.60;;;;;;485010;245;1129;-68
2021/09/19 06:56:41;;;;;;;;;;;23.80;43.40;;;;;;484841;245;1499;-68
2021/09/19 06:58:42;;;;;;;;;;;23.70;43.80;;;;;;485014;245;1187;-68
2021/09/19 07:00:43;;;;;;;;;;;23.80;43.40;;;;;;484996;245;2141;-69
2021/09/19 07:02:45;;;;;;;;;;;23.90;43.60;;;;;;485076;245;1151;-69
2021/09/19 07:04:46;;;;;;;;;;;23.70;43.60;;;;;;485066;245;1145;-68
2021/09/19 07:06:47;;;;;;;;;;;23.60;43.80;;;;;;484976;246;1226;-69
2021/09/19 07:08:49;;;;;;;;;;;23.80;43.50;;;;;;485068;245;1080;-69
2021/09/19 07:10:50;;;;;;;;;;;23.70;43.40;;;;;;485043;245;1223;-69
2021/09/19 07:12:51;;;;;;;;;;;23.80;43.40;;;;;;484975;246;1035;-68
2021/09/19 07:14:53;;;;;;;;;;;23.70;43.80;;;;;;485083;245;972;-68
2021/09/19 07:16:54;;;;;;;;;;;23.70;44.00;;;;;;484990;245;1302;-68
2021/09/19 07:18:55;;;;;;;;;;;23.70;43.80;;;;;;484966;245;1125;-69
2021/09/19 07:20:57;;;;;;;;;;;23.60;44.00;;;;;;485003;245;2132;-69
2021/09/19 07:22:58;;;;;;;;;;;23.70;43.90;;;;;;485010;245;1102;-69
2021/09/19 07:24:59;;;;;;;;;;;23.70;44.20;;;;;;485021;245;954;-69
2021/09/19 07:27:03;;;;;;;;;;;23.70;44.00;;;;;;484963;245;1252;-69
2021/09/19 07:29:02;;;;;;;;;;;23.50;44.40;;;;;;484849;245;1407;-69
2021/09/19 07:31:03;;;;;;;;;;;23.50;44.30;;;;;;484953;245;1193;-68
2021/09/19 07:33:05;;;;;;;;;;;23.80;44.10;;;;;;485067;245;1210;-68
2021/09/19 07:35:06;;;;;;;;;;;23.60;44.20;;;;;;485077;245;951;-68
2021/09/19 07:37:07;;;;;;;;;;;23.90;44.00;;;;;;484898;245;1222;-69
2021/09/19 07:39:08;;;;;;;;;;;23.50;44.40;;;;;;485010;245;932;-69
2021/09/19 07:41:10;;;;;;;;;;;23.80;43.80;;;;;;484940;245;2195;-68
2021/09/19 07:43:11;;;;;;;;;;;23.70;44.40;;;;;;485014;245;990;-68
2021/09/19 07:45:12;;;;;;;;;;;23.60;44.50;;;;;;485013;245;1132;-68
2021/09/19 07:47:14;;;;;;;;;;;23.60;44.70;;;;;;484945;246;1278;-68
2021/09/19 07:49:15;;;;;;;;;;;23.40;45.00;;;;;;485009;245;957;-68
2021/09/19 07:51:17;;;;;;;;;;;23.30;45.20;;;;;;484936;245;1085;-69
2021/09/19 07:53:18;;;;;;;;;;;23.50;45.20;;;;;;485011;245;1011;-69
2021/09/19 07:55:19;;;;;;;;;;;23.40;45.40;;;;;;485024;245;1092;-68
2021/09/19 07:57:20;;;;;;;;;;;23.50;45.10;;;;;;484981;242;1185;-69
2021/09/19 07:59:22;;;;;;;;;;;23.60;45.10;;;;;;485013;245;918;-68
2021/09/19 08:01:23;;;;;;;;;;;23.40;45.50;;;;;;485027;245;2120;-68
2021/09/19 08:03:24;;;;;;;;;;;23.50;45.30;;;;;;485043;245;1053;-68
2021/09/19 08:05:26;;;;;;;;;;;23.30;45.70;;;;;;485055;245;953;-69
2021/09/19 08:07:27;;;;;;;;;;;23.90;44.40;;;;;;485003;245;1160;-68
2021/09/19 08:09:28;;;;;;;;;;;23.60;45.40;;;;;;485072;245;988;-68
2021/09/19 08:11:30;;;;;;;;;;;23.40;45.40;;;;;;485107;245;1164;-69
2021/09/19 08:13:31;;;;;;;;;;;23.70;45.10;;;;;;485128;245;1160;-68
2021/09/19 08:15:32;;;;;;;;;;;23.70;45.30;;;;;;485118;245;983;-69
2021/09/19 08:17:34;;;;;;;;;;;23.60;45.40;;;;;;485038;245;1243;-69
2021/09/19 08:19:35;;;;;;;;;;;23.50;45.60;;;;;;485037;245;969;-69
2021/09/19 08:21:36;;;;;;;;;;;23.40;45.80;;;;;;484970;245;2183;-68
2021/09/19 08:23:38;;;;;;;;;;;23.70;45.40;;;;;;484996;246;946;-68
2021/09/19 08:25:39;;;;;;;;;;;23.40;46.00;;;;;;484912;245;1352;-68
2021/09/19 08:27:40;;;;;;;;;;;23.50;45.80;;;;;;485009;245;1139;-68
2021/09/19 08:29:42;;;;;;;;;;;23.60;45.90;;;;;;485081;245;976;-69
2021/09/19 08:31:43;;;;;;;;;;;23.40;45.90;;;;;;484998;245;1223;-69
2021/09/19 08:33:46;;;;;;;;;;;23.40;46.10;;;;;;485041;245;1012;-69
2021/09/19 08:35:46;;;;;;;;;;;23.60;46.20;;;;;;485021;245;1412;-68
2021/09/19 08:37:47;;;;;;;;;;;23.60;46.20;;;;;;485061;245;1080;-69
2021/09/19 08:39:48;;;;;;;;;;;23.40;46.30;;;;;;485077;245;971;-69
2021/09/19 08:41:50;;;;;;;;;;;23.40;46.40;;;;;;484998;245;2231;-68
2021/09/19 08:43:51;;;;;;;;;;;23.70;46.00;;;;;;485041;245;1336;-69
2021/09/19 08:45:52;;;;;;;;;;;23.30;46.50;;;;;;485028;245;962;-68
2021/09/19 08:47:54;;;;;;;;;;;23.70;46.20;;;;;;485098;245;1068;-69
2021/09/19 08:49:55;;;;;;;;;;;23.50;46.60;;;;;;485015;245;992;-69
2021/09/19 08:51:56;;;;;;;;;;;23.40;46.70;;;;;;485056;245;1050;-68
2021/09/19 08:53:58;;;;;;;;;;;23.60;46.70;;;;;;485082;245;1036;-68
2021/09/19 08:55:59;;;;;;;;;;;23.70;46.20;;;;;;485028;245;963;-69
2021/09/19 08:58:00;;;;;;;;;;;24.00;45.90;;;;;;485043;242;1165;-69
2021/09/19 09:00:02;;;;;;;;;;;24.10;45.50;;;;;;485043;245;955;-69
2021/09/19 09:02:03;;;;;;;;;;;23.90;45.70;;;;;;484917;246;2187;-68
2021/09/19 09:04:05;;;;;;;;;;;24.10;45.70;;;;;;485024;245;1072;-68
2021/09/19 09:06:07;;;;;;;;;;;24.10;45.80;;;;;;485036;245;977;-68
2021/09/19 09:08:08;;;;;;;;;;;23.90;46.00;;;;;;485042;245;1265;-68
2021/09/19 09:10:10;;;;;;;;;;;23.70;46.50;;;;;;485065;245;1011;-69
2021/09/19 09:12:11;;;;;;;;;;;23.60;46.90;;;;;;484996;245;1212;-69
2021/09/19 09:14:12;;;;;;;;;;;23.70;46.80;;;;;;485083;245;1176;-69
2021/09/19 09:16:13;;;;;;;;;;;23.90;45.90;;;;;;485002;245;1237;-69
2021/09/19 09:18:15;;;;;;;;;;;23.00;47.70;;;;;;485096;245;1230;-68
2021/09/19 09:20:16;;;;;;;;;;;22.60;49.10;;;;;;485049;245;1069;-68
2021/09/19 09:22:17;;;;;;;;;;;22.30;49.90;;;;;;484938;245;2120;-69
2021/09/19 09:24:19;;;;;;;;;;;22.10;50.40;;;;;;484954;246;1097;-69
2021/09/19 09:26:20;;;;;;;;;;;22.00;51.00;;;;;;484932;245;1102;-68
2021/09/19 09:28:21;;;;;;;;;;;21.90;51.30;;;;;;485013;245;1347;-69
2021/09/19 09:30:23;;;;;;;;;;;21.80;51.60;;;;;;485001;245;1097;-69
2021/09/19 09:32:24;;;;;;;;;;;21.70;51.80;;;;;;484917;245;1221;-69
2021/09/19 09:34:25;;;;;;;;;;;21.70;52.10;;;;;;485009;245;936;-68
2021/09/19 09:36:27;;;;;;;;;;;21.70;52.10;;;;;;484936;245;1100;-68
2021/09/19 09:38:28;;;;;;;;;;;21.70;52.10;;;;;;485097;245;1032;-68
2021/09/19 09:40:29;;;;;;;;;;;21.70;52.30;;;;;;485046;245;975;-68
2021/09/19 09:42:36;;;;;;;;;;;21.70;52.20;;;;;;484988;245;2124;-68
2021/09/19 09:44:32;;;;;;;;;;;21.60;52.30;;;;;;484751;245;1428;-68
2021/09/19 09:46:33;;;;;;;;;;;21.60;52.50;;;;;;484955;245;1186;-68
2021/09/19 09:48:38;;;;;;;;;;;21.50;52.60;;;;;;485043;245;1115;-68
2021/09/19 09:50:40;;;;;;;;;;;21.50;52.60;;;;;;485033;245;1103;-68
2021/09/19 09:52:42;;;;;;;;;;;21.50;52.70;;;;;;485015;245;1093;-68
2021/09/19 09:54:42;;;;;;;;;;;21.60;52.70;;;;;;485010;245;1424;-68
2021/09/19 09:56:44;;;;;;;;;;;21.50;52.70;;;;;;485018;245;1110;-68
2021/09/19 09:58:45;;;;;;;;;;;21.50;52.80;;;;;;485118;245;1178;-68
2021/09/19 10:00:46;;;;;;;;;;;21.50;52.80;;;;;;485017;245;985;-68
2021/09/19 10:02:48;;;;;;;;;;;21.50;52.80;;;;;;485036;245;2208;-68
2021/09/19 10:04:51;;;;;;;;;;;21.50;53.00;;;;;;485111;245;947;-68
2021/09/19 10:06:50;;;;;;;;;;;21.50;53.10;;;;;;484807;245;1340;-69
2021/09/19 10:08:51;;;;;;;;;;;21.50;53.00;;;;;;485001;245;967;-68
2021/09/19 10:10:56;;;;;;;;;;;21.50;53.10;;;;;;485055;245;948;-69
2021/09/19 10:12:54;;;;;;;;;;;21.40;53.10;;;;;;484775;245;1390;-69
2021/09/19 10:14:56;;;;;;;;;;;21.40;53.20;;;;;;484997;245;1159;-68
2021/09/19 10:16:57;;;;;;;;;;;21.50;53.20;;;;;;484966;245;1157;-68
2021/09/19 10:18:59;;;;;;;;;;;21.50;53.20;;;;;;485033;245;971;-68
2021/09/19 10:20:59;;;;;;;;;;;21.40;53.20;;;;;;484970;245;1454;-68
2021/09/19 10:23:01;;;;;;;;;;;21.40;53.30;;;;;;485071;245;2191;-68
2021/09/19 10:25:02;;;;;;;;;;;21.40;53.50;;;;;;485000;245;1179;-69
2021/09/19 10:27:03;;;;;;;;;;;21.40;53.60;;;;;;484967;245;1147;-68
2021/09/19 10:29:05;;;;;;;;;;;21.40;53.60;;;;;;485054;245;1187;-68
2021/09/19 10:31:06;;;;;;;;;;;21.40;53.60;;;;;;484962;245;1085;-68
2021/09/19 10:33:07;;;;;;;;;;;21.40;53.70;;;;;;485117;245;1123;-68
2021/09/19 10:35:09;;;;;;;;;;;21.40;53.80;;;;;;485042;245;971;-68
2021/09/19 10:37:10;;;;;;;;;;;21.40;53.80;;;;;;485030;245;1118;-68
2021/09/19 10:39:11;;;;;;;;;;;21.40;54.00;;;;;;485082;245;991;-68
2021/09/19 10:41:13;;;;;;;;;;;21.40;53.80;;;;;;484970;245;1196;-69
2021/09/19 10:43:14;;;;;;;;;;;21.30;53.80;;;;;;484998;245;2109;-68
2021/09/19 10:45:16;;;;;;;;;;;21.30;54.00;;;;;;485121;245;1105;-69
2021/09/19 10:47:17;;;;;;;;;;;21.30;54.10;;;;;;485066;245;1212;-68
2021/09/19 10:49:18;;;;;;;;;;;21.30;54.00;;;;;;485007;245;976;-69
2021/09/19 10:51:20;;;;;;;;;;;21.30;54.00;;;;;;484972;245;1131;-68
2021/09/19 10:53:21;;;;;;;;;;;21.30;54.00;;;;;;484978;245;980;-69
2021/09/19 10:55:22;;;;;;;;;;;21.40;54.00;;;;;;484989;245;959;-68
2021/09/19 10:57:24;;;;;;;;;;;21.40;53.90;;;;;;485006;246;1069;-69
2021/09/19 10:59:25;;;;;;;;;;;21.60;53.50;;;;;;485119;245;1092;-68
2021/09/19 11:01:26;;;;;;;;;;;21.50;53.50;;;;;;484999;245;1191;-69
2021/09/19 11:03:28;;;;;;;;;;;21.40;53.70;;;;;;485045;245;2168;-68
2021/09/19 11:05:29;;;;;;;;;;;21.40;53.70;;;;;;485078;245;982;-68
2021/09/19 11:07:30;;;;;;;;;;;21.50;53.60;;;;;;485030;245;974;-68
2021/09/19 11:09:35;;;;;;;;;;;21.50;53.60;;;;;;485009;245;983;-68
2021/09/19 11:11:33;;;;;;;;;;;21.50;53.70;;;;;;484857;245;1318;-68
2021/09/19 11:13:35;;;;;;;;;;;21.50;53.80;;;;;;485046;245;1001;-68
2021/09/19 11:15:36;;;;;;;;;;;21.50;53.70;;;;;;485054;245;1128;-68
2021/09/19 11:17:37;;;;;;;;;;;21.40;53.70;;;;;;485004;246;938;-68
2021/09/19 11:19:39;;;;;;;;;;;21.40;53.80;;;;;;485061;245;1101;-68
2021/09/19 11:21:40;;;;;;;;;;;21.40;53.90;;;;;;484950;245;2191;-68
2021/09/19 11:23:45;;;;;;;;;;;21.40;54.00;;;;;;485034;245;1103;-68
2021/09/19 11:25:43;;;;;;;;;;;21.40;54.10;;;;;;484782;245;1437;-69
2021/09/19 11:27:45;;;;;;;;;;;21.40;54.00;;;;;;484978;245;1154;-69
2021/09/19 11:29:45;;;;;;;;;;;21.30;54.00;;;;;;485031;245;1399;-68
2021/09/19 11:31:47;;;;;;;;;;;21.40;54.00;;;;;;484935;245;1067;-69
2021/09/19 11:33:48;;;;;;;;;;;21.40;53.90;;;;;;485010;246;1094;-68
2021/09/19 11:35:49;;;;;;;;;;;21.40;53.90;;;;;;485004;245;1113;-68
2021/09/19 11:37:51;;;;;;;;;;;21.40;53.90;;;;;;484916;245;1082;-68
2021/09/19 11:39:52;;;;;;;;;;;21.40;53.90;;;;;;485052;245;1035;-68
2021/09/19 11:41:53;;;;;;;;;;;21.30;53.90;;;;;;485004;245;2128;-69
2021/09/19 11:43:55;;;;;;;;;;;21.30;54.00;;;;;;485099;245;1208;-68
2021/09/19 11:45:56;;;;;;;;;;;21.30;54.00;;;;;;484918;245;1488;-68
2021/09/19 11:47:57;;;;;;;;;;;21.30;54.00;;;;;;485051;245;1111;-68
2021/09/19 11:50:00;;;;;;;;;;;21.30;54.00;;;;;;485010;245;954;-68
2021/09/19 11:52:00;;;;;;;;;;;21.30;54.10;;;;;;484924;245;1514;-68
2021/09/19 11:54:01;;;;;;;;;;;21.30;54.00;;;;;;485067;245;1063;-68
2021/09/19 11:56:03;;;;;;;;;;;21.30;54.10;;;;;;485036;245;1225;-68
2021/09/19 11:58:04;;;;;;;;;;;21.30;54.00;;;;;;485024;245;1192;-69